Time;durP1;ratioP1;P1;durP2;ratioP2;P2;SDS_P1;SDS_P2;PMS_P1;PMS_P2;Temp;Humidity;BMP_temperature;BMP_pressure;BME280_temperature;BME280_humidity;BME280_pressure;Samples;Min_cycle;Max_cycle;Signal;HPM_P1;HPM_P2
2023/08/09 00:01:07;;;;;;;0.03;0.03;;;16.00;78.50;;;;;;4964879;28;20043;-78
2023/08/09 00:03:32;;;;;;;0.47;0.40;;;15.90;78.50;;;;;;4964810;28;20042;-77
2023/08/09 00:05:58;;;;;;;0.00;0.00;;;16.00;79.00;;;;;;4964671;28;20096;-77
2023/08/09 00:08:24;;;;;;;0.00;0.00;;;16.00;78.80;;;;;;4965197;28;20031;-78
2023/08/09 00:10:49;;;;;;;0.40;0.40;;;15.90;79.20;;;;;;4964484;28;20047;-78
2023/08/09 00:13:15;;;;;;;0.00;0.00;;;15.80;79.60;;;;;;4964994;28;20053;-77
2023/08/09 00:15:41;;;;;;;4.00;1.30;;;15.70;80.00;;;;;;4964481;28;20109;-80
2023/08/09 00:18:07;;;;;;;0.03;0.03;;;15.70;80.30;;;;;;4964714;28;20102;-78
2023/08/09 00:20:33;;;;;;;0.75;0.52;;;15.50;81.10;;;;;;4968134;28;20035;-78
2023/08/09 00:22:58;;;;;;;0.90;0.82;;;15.60;80.90;;;;;;4964102;28;20062;-77
2023/08/09 00:25:24;;;;;;;0.10;0.10;;;15.50;80.80;;;;;;4964444;28;20027;-78
2023/08/09 00:27:50;;;;;;;0.23;0.23;;;15.70;80.40;;;;;;4966323;28;20544;-79
2023/08/09 00:30:16;;;;;;;0.90;0.53;;;15.50;80.80;;;;;;4960558;28;20023;-78
2023/08/09 00:32:42;;;;;;;0.00;0.00;;;15.60;80.70;;;;;;4964376;28;20750;-77
2023/08/09 00:35:09;;;;;;;0.10;0.10;;;15.60;80.80;;;;;;4963048;28;20033;-77
2023/08/09 00:37:35;;;;;;;0.00;0.00;;;15.30;82.10;;;;;;4963586;28;20031;-78
2023/08/09 00:40:05;;;;;;;0.30;0.30;;;15.40;82.80;;;;;;4962891;28;20027;-78
2023/08/09 00:42:31;;;;;;;0.10;0.10;;;15.40;82.00;;;;;;4964125;28;20290;-77
2023/08/09 00:44:56;;;;;;;0.10;0.10;;;15.30;82.60;;;;;;4964409;28;20558;-78
2023/08/09 00:47:22;;;;;;;0.00;0.00;;;15.30;83.30;;;;;;4967699;28;20042;-77
2023/08/09 00:49:48;;;;;;;0.20;0.20;;;15.30;83.30;;;;;;4963854;28;20027;-78
2023/08/09 00:52:15;;;;;;;0.00;0.00;;;15.20;83.40;;;;;;4964275;28;20050;-78
2023/08/09 00:54:43;;;;;;;0.50;0.50;;;15.20;83.80;;;;;;4964055;28;20031;-78
2023/08/09 00:57:09;;;;;;;0.20;0.20;;;15.20;84.00;;;;;;4964001;28;20121;-78
2023/08/09 00:59:35;;;;;;;0.10;0.10;;;15.20;84.30;;;;;;4963690;28;20109;-78
2023/08/09 01:02:01;;;;;;;0.00;0.00;;;15.20;85.10;;;;;;4963922;28;20038;-78
2023/08/09 01:04:27;;;;;;;0.30;0.30;;;15.20;85.20;;;;;;4963788;28;20113;-77
2023/08/09 01:07:11;;;;;;;0.47;0.47;;;15.20;85.40;;;;;;4963900;28;20030;-78
2023/08/09 01:09:48;;;;;;;0.35;0.35;;;15.00;86.10;;;;;;4957926;28;20030;-78
2023/08/09 01:12:25;;;;;;;0.30;0.30;;;15.10;85.90;;;;;;4959081;28;20027;-78
2023/08/09 01:14:54;;;;;;;0.43;0.43;;;15.00;86.30;;;;;;4964304;28;20088;-79
2023/08/09 01:17:22;;;;;;;0.00;0.00;;;15.10;85.90;;;;;;4963247;28;20039;-77
2023/08/09 01:19:51;;;;;;;0.10;0.10;;;15.20;85.00;;;;;;4964648;28;20023;-78
2023/08/09 01:22:21;;;;;;;0.30;0.30;;;15.20;85.60;;;;;;4963161;28;20181;-78
2023/08/09 01:24:48;;;;;;;0.00;0.00;;;15.10;86.10;;;;;;4964267;28;20031;-78
2023/08/09 01:27:14;;;;;;;0.20;0.20;;;15.10;86.20;;;;;;4963123;28;20049;-78
2023/08/09 01:29:41;;;;;;;0.00;0.00;;;15.00;86.70;;;;;;4963749;28;20030;-77
2023/08/09 01:32:07;;;;;;;0.00;0.00;;;14.90;87.80;;;;;;4964440;28;20327;-78
2023/08/09 01:34:35;;;;;;;0.10;0.10;;;14.90;87.40;;;;;;4963966;28;20034;-78
2023/08/09 01:37:15;;;;;;;0.30;0.30;;;14.90;88.00;;;;;;4963406;28;20165;-79
2023/08/09 01:39:42;;;;;;;0.10;0.10;;;14.80;88.20;;;;;;4963076;28;20545;-78
2023/08/09 01:42:11;;;;;;;1.25;0.60;;;14.70;89.10;;;;;;4963281;28;20027;-79
2023/08/09 01:44:37;;;;;;;1.30;0.17;;;14.70;89.10;;;;;;4962883;28;20035;-79
2023/08/09 01:47:03;;;;;;;3.13;0.90;;;14.70;89.10;;;;;;4968482;28;20027;-79
2023/08/09 01:49:29;;;;;;;0.10;0.10;;;14.70;89.20;;;;;;4961262;28;20035;-79
2023/08/09 01:51:56;;;;;;;0.00;0.00;;;14.70;89.20;;;;;;4960146;28;20049;-79
2023/08/09 01:54:21;;;;;;;0.40;0.40;;;14.60;89.50;;;;;;4965556;28;20026;-79
2023/08/09 01:56:47;;;;;;;0.00;0.00;;;14.50;90.00;;;;;;4962731;28;20093;-78
2023/08/09 01:59:14;;;;;;;0.03;0.03;;;14.40;90.20;;;;;;4964869;28;20022;-77
2023/08/09 02:01:40;;;;;;;;;;;14.40;90.40;;;;;;4967170;28;20031;-78
2023/08/09 02:04:09;;;;;;;0.05;0.05;;;14.40;90.20;;;;;;4966472;28;19944;-78
2023/08/09 02:06:35;;;;;;;0.25;0.25;;;14.40;90.20;;;;;;4961008;28;20050;-78
2023/08/09 02:09:01;;;;;;;0.00;0.00;;;14.40;90.30;;;;;;4971678;28;20027;-79
2023/08/09 02:11:27;;;;;;;0.57;0.57;;;14.40;90.40;;;;;;4966052;28;20122;-78
2023/08/09 02:13:53;;;;;;;0.45;0.45;;;14.30;90.40;;;;;;4966356;28;20898;-76
2023/08/09 02:16:19;;;;;;;0.10;0.10;;;14.40;90.40;;;;;;4965918;28;20043;-76
2023/08/09 02:18:45;;;;;;;0.10;0.10;;;14.40;90.00;;;;;;4965392;28;20034;-78
2023/08/09 02:21:11;;;;;;;0.03;0.03;;;14.40;89.90;;;;;;4964979;28;20157;-77
2023/08/09 02:23:40;;;;;;;0.20;0.20;;;14.40;89.70;;;;;;4966109;28;20510;-77
2023/08/09 02:26:07;;;;;;;0.00;0.00;;;14.40;89.90;;;;;;4965686;28;20031;-77
2023/08/09 02:28:34;;;;;;;0.00;0.00;;;14.30;90.10;;;;;;4967081;28;20690;-78
2023/08/09 02:31:00;;;;;;;0.05;0.05;;;14.30;90.10;;;;;;4965639;28;20045;-77
2023/08/09 02:33:33;;;;;;;0.30;0.30;;;14.30;90.20;;;;;;4967130;28;20035;-77
2023/08/09 02:36:04;;;;;;;0.10;0.10;;;14.20;90.40;;;;;;4964496;28;20105;-77
2023/08/09 02:38:34;;;;;;;0.10;0.10;;;14.10;90.60;;;;;;4965662;28;20042;-77
2023/08/09 02:41:04;;;;;;;0.10;0.10;;;14.10;90.80;;;;;;4965584;28;20022;-76
2023/08/09 02:43:30;;;;;;;0.30;0.30;;;14.00;91.00;;;;;;4965359;28;20033;-76
2023/08/09 02:45:56;;;;;;;0.05;0.05;;;13.90;91.20;;;;;;4968135;28;20088;-76
2023/08/09 02:48:22;;;;;;;0.10;0.10;;;13.90;91.20;;;;;;4968401;28;20117;-76
2023/08/09 02:50:49;;;;;;;0.10;0.10;;;13.90;91.50;;;;;;4965274;28;20041;-76
2023/08/09 02:53:16;;;;;;;;;;;13.80;91.50;;;;;;4965935;28;20045;-77
2023/08/09 02:55:43;;;;;;;0.38;0.38;;;13.80;91.60;;;;;;4965937;28;19957;-77
2023/08/09 02:58:09;;;;;;;0.98;0.80;;;13.80;91.60;;;;;;4965524;28;20038;-77
2023/08/09 03:00:35;;;;;;;0.10;0.10;;;13.80;91.70;;;;;;4968245;28;20468;-77
2023/08/09 03:03:05;;;;;;;0.10;0.10;;;13.80;91.70;;;;;;4966601;28;20561;-77
2023/08/09 03:05:31;;;;;;;0.10;0.10;;;13.80;91.70;;;;;;4967708;28;20031;-77
2023/08/09 03:07:57;;;;;;;0.10;0.10;;;13.70;91.80;;;;;;4965112;28;20049;-76
2023/08/09 03:10:23;;;;;;;0.10;0.10;;;13.70;91.90;;;;;;4964454;28;20031;-76
2023/08/09 03:12:49;;;;;;;0.00;0.00;;;13.60;92.00;;;;;;4965749;28;20498;-77
2023/08/09 03:15:16;;;;;;;0.15;0.15;;;13.60;92.30;;;;;;4965663;28;20255;-77
2023/08/09 03:17:42;;;;;;;0.20;0.20;;;13.50;92.40;;;;;;4965445;28;20046;-78
2023/08/09 03:20:15;;;;;;;0.10;0.10;;;13.50;92.40;;;;;;4968431;28;20499;-75
2023/08/09 03:22:49;;;;;;;0.10;0.10;;;13.50;92.40;;;;;;4966564;28;20055;-77
2023/08/09 03:25:16;;;;;;;0.47;0.47;;;13.40;92.60;;;;;;4985441;28;20717;-76
2023/08/09 03:27:41;;;;;;;0.10;0.10;;;13.40;92.70;;;;;;4969164;28;20104;-77
2023/08/09 03:30:08;;;;;;;0.75;0.75;;;13.40;92.60;;;;;;4965055;28;20027;-76
2023/08/09 03:32:37;;;;;;;0.10;0.10;;;13.40;92.60;;;;;;4965129;28;20438;-77
2023/08/09 03:35:04;;;;;;;0.40;0.40;;;13.40;92.60;;;;;;4963734;28;20034;-76
2023/08/09 03:37:30;;;;;;;0.00;0.00;;;13.40;92.60;;;;;;4964460;28;20792;-77
2023/08/09 03:39:56;;;;;;;0.10;0.10;;;13.30;92.70;;;;;;4965850;28;20027;-77
2023/08/09 03:42:21;;;;;;;0.25;0.25;;;13.30;92.70;;;;;;4965969;28;20110;-77
2023/08/09 03:44:47;;;;;;;0.10;0.10;;;13.30;92.60;;;;;;4965488;28;20034;-77
2023/08/09 03:47:13;;;;;;;1.30;0.55;;;13.30;92.60;;;;;;4965516;28;20037;-76
2023/08/09 03:49:39;;;;;;;0.10;0.10;;;13.30;92.60;;;;;;4964964;28;20581;-76
2023/08/09 03:52:06;;;;;;;0.57;0.35;;;13.30;92.60;;;;;;4964986;28;20034;-76
2023/08/09 03:54:32;;;;;;;0.00;0.00;;;13.30;92.70;;;;;;4965451;28;20641;-76
2023/08/09 03:56:57;;;;;;;0.10;0.10;;;13.10;93.10;;;;;;4965040;28;20035;-76
2023/08/09 03:59:23;;;;;;;0.10;0.10;;;13.10;93.40;;;;;;4964633;28;20038;-76
2023/08/09 04:01:49;;;;;;;0.32;0.32;;;13.10;93.40;;;;;;4964714;28;20062;-76
2023/08/09 04:04:14;;;;;;;0.10;0.10;;;13.10;93.30;;;;;;4964690;28;20039;-76
2023/08/09 04:06:40;;;;;;;0.10;0.10;;;13.10;93.40;;;;;;4965249;28;20038;-76
2023/08/09 04:09:07;;;;;;;0.10;0.10;;;13.00;93.60;;;;;;4965613;28;20511;-77
2023/08/09 04:11:33;;;;;;;0.10;0.10;;;13.10;93.50;;;;;;4964911;28;20050;-76
2023/08/09 04:13:59;;;;;;;0.00;0.00;;;12.90;93.80;;;;;;4964859;28;20039;-76
2023/08/09 04:16:25;;;;;;;0.10;0.10;;;12.90;94.00;;;;;;4964493;28;20105;-76
2023/08/09 04:18:51;;;;;;;0.10;0.10;;;12.90;94.00;;;;;;4965582;28;20046;-78
2023/08/09 04:21:17;;;;;;;0.20;0.20;;;12.90;94.30;;;;;;4966876;28;20054;-77
2023/08/09 04:23:43;;;;;;;0.10;0.10;;;12.80;94.40;;;;;;4964905;28;20085;-77
2023/08/09 04:26:08;;;;;;;0.10;0.10;;;12.80;94.50;;;;;;4964580;28;20026;-77
2023/08/09 04:28:34;;;;;;;0.10;0.10;;;12.70;94.50;;;;;;4965005;28;20035;-78
2023/08/09 04:31:01;;;;;;;0.10;0.10;;;12.80;94.40;;;;;;4964306;28;20041;-77
2023/08/09 04:33:27;;;;;;;0.10;0.10;;;12.80;94.40;;;;;;4963969;28;20027;-76
2023/08/09 04:35:54;;;;;;;0.08;0.08;;;12.80;94.60;;;;;;4963731;28;20050;-76
2023/08/09 04:38:20;;;;;;;0.10;0.10;;;12.70;94.50;;;;;;4958212;28;20023;-76
2023/08/09 04:40:45;;;;;;;0.00;0.00;;;12.70;94.70;;;;;;4963876;28;20037;-76
2023/08/09 04:43:13;;;;;;;0.10;0.10;;;12.60;94.90;;;;;;4963587;28;20114;-78
2023/08/09 04:45:39;;;;;;;0.20;0.20;;;12.60;94.80;;;;;;4964252;28;20613;-76
2023/08/09 04:48:05;;;;;;;0.50;0.50;;;12.60;95.00;;;;;;4964468;28;20025;-76
2023/08/09 04:50:31;;;;;;;0.20;0.20;;;12.60;94.90;;;;;;4963565;28;20134;-76
2023/08/09 04:52:59;;;;;;;0.10;0.10;;;12.60;94.90;;;;;;4958669;28;20419;-75
2023/08/09 04:55:25;;;;;;;0.10;0.10;;;12.70;94.80;;;;;;4961917;28;20023;-77
2023/08/09 04:57:51;;;;;;;0.70;0.47;;;12.70;94.40;;;;;;4965000;28;20038;-76
2023/08/09 05:00:17;;;;;;;0.00;0.00;;;12.80;94.10;;;;;;4971747;28;20027;-75
2023/08/09 05:02:43;;;;;;;0.10;0.10;;;13.00;93.60;;;;;;4963699;28;20034;-75
2023/08/09 05:05:10;;;;;;;2.53;0.98;;;13.10;93.40;;;;;;4963096;28;20023;-75
2023/08/09 05:07:37;;;;;;;0.45;0.45;;;13.50;92.10;;;;;;4964297;28;20093;-77
2023/08/09 05:10:04;;;;;;;0.80;0.65;;;14.00;90.80;;;;;;4963909;28;20015;-75
2023/08/09 05:12:30;;;;;;;;;;;13.80;90.40;;;;;;4965058;28;20038;-75
2023/08/09 05:14:57;;;;;;;0.10;0.10;;;13.40;92.00;;;;;;4964023;28;20355;-74
2023/08/09 05:17:23;;;;;;;0.10;0.10;;;13.30;91.90;;;;;;4963448;28;20286;-74
2023/08/09 05:19:48;;;;;;;0.10;0.10;;;13.40;91.90;;;;;;4971825;28;20033;-73
2023/08/09 05:22:14;;;;;;;0.57;0.57;;;13.40;92.00;;;;;;4972737;28;20520;-74
2023/08/09 05:24:40;;;;;;;0.13;0.13;;;13.60;91.60;;;;;;4964020;28;20035;-74
2023/08/09 05:27:06;;;;;;;0.38;0.38;;;13.70;91.30;;;;;;4963858;28;20483;-77
2023/08/09 05:29:32;;;;;;;0.03;0.03;;;14.00;90.40;;;;;;4963741;28;20427;-75
2023/08/09 05:31:58;;;;;;;0.07;0.07;;;14.20;90.00;;;;;;4963009;28;20058;-76
2023/08/09 05:34:24;;;;;;;0.10;0.10;;;14.20;89.70;;;;;;4964876;28;20102;-76
2023/08/09 05:36:50;;;;;;;0.10;0.10;;;14.50;89.10;;;;;;4966473;28;20481;-77
2023/08/09 05:39:15;;;;;;;0.00;0.00;;;14.90;86.80;;;;;;4965793;28;20030;-76
2023/08/09 05:41:41;;;;;;;0.00;0.00;;;15.40;84.20;;;;;;4966472;28;20562;-80
2023/08/09 05:44:07;;;;;;;0.40;0.33;;;15.40;84.20;;;;;;4968329;28;20453;-77
2023/08/09 05:46:33;;;;;;;0.00;0.00;;;15.80;83.10;;;;;;4966169;28;20049;-80
2023/08/09 05:48:59;;;;;;;0.03;0.03;;;15.80;82.20;;;;;;4965326;28;20027;-76
2023/08/09 05:51:25;;;;;;;0.10;0.10;;;16.10;81.60;;;;;;4965290;28;20045;-75
2023/08/09 05:53:51;;;;;;;0.10;0.10;;;16.70;79.20;;;;;;4964211;28;20117;-82
2023/08/09 05:56:17;;;;;;;0.00;0.00;;;17.80;75.20;;;;;;4966080;28;20070;-83
2023/08/09 05:58:43;;;;;;;0.10;0.10;;;18.80;72.20;;;;;;4960244;28;20117;-81
2023/08/09 06:01:08;;;;;;;0.00;0.00;;;19.20;70.50;;;;;;4961370;28;20105;-79
2023/08/09 06:03:39;;;;;;;0.00;0.00;;;19.40;69.10;;;;;;4964347;28;20031;-81
2023/08/09 06:06:06;;;;;;;0.00;0.00;;;19.90;67.40;;;;;;4962984;28;20558;-81
2023/08/09 06:08:33;;;;;;;0.00;0.00;;;20.10;66.90;;;;;;4967945;28;20031;-84
2023/08/09 06:10:59;;;;;;;0.00;0.00;;;20.20;65.20;;;;;;4967307;28;20034;-82
2023/08/09 06:13:25;;;;;;;0.00;0.00;;;20.50;65.10;;;;;;4966510;28;20033;-82
2023/08/09 06:15:50;;;;;;;0.00;0.00;;;21.50;63.30;;;;;;4966983;28;20039;-80
2023/08/09 06:18:16;;;;;;;0.00;0.00;;;20.80;62.10;;;;;;4968388;28;20033;-83
2023/08/09 06:20:42;;;;;;;0.00;0.00;;;21.00;62.10;;;;;;4962509;28;20086;-83
2023/08/09 06:23:09;;;;;;;0.00;0.00;;;20.90;62.70;;;;;;4964720;28;20057;-83
2023/08/09 06:25:35;;;;;;;0.10;0.10;;;21.50;60.10;;;;;;4965177;28;20042;-83
2023/08/09 06:28:00;;;;;;;0.00;0.00;;;22.00;60.00;;;;;;4964607;28;20034;-82
2023/08/09 06:30:26;;;;;;;0.00;0.00;;;22.20;58.60;;;;;;4960550;28;20784;-82
2023/08/09 06:32:53;;;;;;;1.42;0.25;;;22.50;58.00;;;;;;4966098;28;20023;-81
2023/08/09 06:35:19;;;;;;;0.00;0.00;;;22.40;57.50;;;;;;4964523;28;20151;-82
2023/08/09 06:37:46;;;;;;;1.45;0.65;;;22.70;58.10;;;;;;4965640;28;20038;-83
2023/08/09 06:40:12;;;;;;;0.00;0.00;;;22.60;56.40;;;;;;4966371;28;20042;-82
2023/08/09 06:42:39;;;;;;;0.00;0.00;;;22.70;56.10;;;;;;4965977;28;20035;-80
2023/08/09 06:45:05;;;;;;;0.10;0.10;;;22.50;56.90;;;;;;4964884;28;20732;-81
2023/08/09 06:47:31;;;;;;;0.08;0.03;;;23.30;55.60;;;;;;4969599;28;20062;-82
2023/08/09 06:49:56;;;;;;;0.00;0.00;;;23.40;55.00;;;;;;4966356;28;20503;-82
2023/08/09 06:52:22;;;;;;;0.00;0.00;;;23.40;54.50;;;;;;4966842;28;20058;-82
2023/08/09 06:54:48;;;;;;;0.00;0.00;;;23.50;53.90;;;;;;4966365;28;20034;-82
2023/08/09 06:57:14;;;;;;;0.00;0.00;;;23.40;55.10;;;;;;4966077;28;20293;-81
2023/08/09 06:59:40;;;;;;;0.90;0.52;;;24.00;54.10;;;;;;4967343;28;20033;-81
2023/08/09 07:02:05;;;;;;;0.00;0.00;;;24.80;53.10;;;;;;4966057;28;20031;-81
2023/08/09 07:04:31;;;;;;;0.65;0.55;;;25.40;51.00;;;;;;4966951;28;20093;-83
2023/08/09 07:06:57;;;;;;;0.00;0.00;;;25.00;50.80;;;;;;4966839;28;20090;-81
2023/08/09 07:09:22;;;;;;;0.00;0.00;;;25.30;51.60;;;;;;4965867;28;20046;-82
2023/08/09 07:11:48;;;;;;;0.00;0.00;;;25.30;50.20;;;;;;4966051;28;20567;-81
2023/08/09 07:14:14;;;;;;;0.00;0.00;;;25.30;50.40;;;;;;4966029;28;20084;-83
2023/08/09 07:16:40;;;;;;;0.00;0.00;;;25.70;50.00;;;;;;4973584;28;20037;-82
2023/08/09 07:19:05;;;;;;;0.03;0.03;;;25.90;49.60;;;;;;4968748;28;20034;-81
2023/08/09 07:21:31;;;;;;;0.08;0.08;;;25.80;48.50;;;;;;4965163;28;20054;-85
2023/08/09 07:23:57;;;;;;;0.38;0.30;;;25.50;48.60;;;;;;4965782;28;20110;-82
2023/08/09 07:26:23;;;;;;;0.00;0.00;;;26.00;49.00;;;;;;4966104;28;20069;-81
2023/08/09 07:28:48;;;;;;;0.03;0.03;;;26.30;49.10;;;;;;4965754;28;20030;-81
2023/08/09 07:31:19;;;;;;;0.17;0.17;;;26.00;49.20;;;;;;4965329;28;20035;-81
2023/08/09 07:33:45;;;;;;;0.00;0.00;;;26.10;49.70;;;;;;4965263;28;20031;-81
2023/08/09 07:36:10;;;;;;;;;;;27.30;47.50;;;;;;4965224;28;20042;-81
2023/08/09 07:38:37;;;;;;;0.00;0.00;;;27.10;47.70;;;;;;4964820;28;19910;-82
2023/08/09 07:41:03;;;;;;;;;;;27.40;46.50;;;;;;4965010;28;20030;-80
2023/08/09 07:43:28;;;;;;;0.00;0.00;;;27.10;45.70;;;;;;4965664;28;19914;-83
2023/08/09 07:45:54;;;;;;;0.08;0.08;;;27.90;45.80;;;;;;4964229;28;20031;-82
2023/08/09 07:48:20;;;;;;;0.00;0.00;;;27.80;45.00;;;;;;4964868;28;20038;-83
2023/08/09 07:50:46;;;;;;;0.85;0.20;;;28.30;45.20;;;;;;4962984;28;20041;-82
2023/08/09 07:53:12;;;;;;;0.00;0.00;;;29.00;44.60;;;;;;4965271;28;20113;-83
2023/08/09 07:55:39;;;;;;;0.95;0.75;;;28.90;43.50;;;;;;4964338;28;20023;-82
2023/08/09 07:58:05;;;;;;;0.00;0.00;;;28.80;45.00;;;;;;4964461;28;20046;-82
2023/08/09 08:00:31;;;;;;;0.00;0.00;;;29.40;43.80;;;;;;4963228;28;20789;-82
2023/08/09 08:02:57;;;;;;;;;;;29.60;42.80;;;;;;4965028;28;20022;-82
2023/08/09 08:05:23;;;;;;;0.00;0.00;;;29.60;42.60;;;;;;4965311;28;19910;-81
2023/08/09 08:07:48;;;;;;;;;;;29.40;42.50;;;;;;4963544;28;20093;-82
2023/08/09 08:10:14;;;;;;;0.00;0.00;;;30.50;43.00;;;;;;4964512;28;19948;-82
2023/08/09 08:12:42;;;;;;;;;;;30.60;41.20;;;;;;4965060;28;20058;-83
2023/08/09 08:15:08;;;;;;;0.00;0.00;;;30.60;41.70;;;;;;4965322;28;19909;-82
2023/08/09 08:17:33;;;;;;;;;;;29.80;42.60;;;;;;4965370;28;20027;-82
2023/08/09 08:20:00;;;;;;;0.00;0.00;;;30.50;41.50;;;;;;4965117;28;19914;-83
2023/08/09 08:22:25;;;;;;;0.00;0.00;;;29.60;43.10;;;;;;4964400;28;20079;-82
2023/08/09 08:24:51;;;;;;;;;;;31.10;43.50;;;;;;4965869;28;20538;-82
2023/08/09 08:27:17;;;;;;;0.00;0.00;;;30.40;41.80;;;;;;4966041;28;19909;-81
2023/08/09 08:29:42;;;;;;;0.00;0.00;;;31.50;41.50;;;;;;4964526;28;20118;-82
2023/08/09 08:32:09;;;;;;;0.00;0.00;;;31.30;40.00;;;;;;4965217;28;20030;-81
2023/08/09 08:34:35;;;;;;;0.00;0.00;;;32.00;41.30;;;;;;4964435;28;20787;-83
2023/08/09 08:37:01;;;;;;;0.00;0.00;;;32.50;40.70;;;;;;4964823;28;20049;-82
2023/08/09 08:39:30;;;;;;;0.00;0.00;;;32.70;40.10;;;;;;4965190;28;20099;-82
2023/08/09 08:41:59;;;;;;;0.45;0.45;;;33.10;38.40;;;;;;4962238;28;20041;-82
2023/08/09 08:44:25;;;;;;;0.00;0.00;;;33.80;38.60;;;;;;4964530;28;20117;-81
2023/08/09 08:46:51;;;;;;;0.00;0.00;;;34.40;37.60;;;;;;4962502;28;20034;-80
2023/08/09 08:49:23;;;;;;;0.00;0.00;;;34.40;36.80;;;;;;4961982;28;20169;-84
2023/08/09 08:51:54;;;;;;;0.00;0.00;;;35.10;36.80;;;;;;4958956;28;20034;-82
2023/08/09 08:54:20;;;;;;;0.00;0.00;;;34.00;35.90;;;;;;4963117;28;20023;-81
2023/08/09 08:56:48;;;;;;;0.00;0.00;;;35.20;37.90;;;;;;4963928;28;20483;-84
2023/08/09 08:59:15;;;;;;;0.05;0.05;;;35.30;36.00;;;;;;4963868;28;20019;-82
2023/08/09 09:01:42;;;;;;;0.00;0.00;;;35.30;36.20;;;;;;4963871;28;20039;-83
2023/08/09 09:04:08;;;;;;;0.00;0.00;;;35.10;35.60;;;;;;4964302;28;20286;-82
2023/08/09 09:06:34;;;;;;;0.00;0.00;;;35.60;36.00;;;;;;4964109;28;20546;-82
2023/08/09 09:09:00;;;;;;;0.30;0.30;;;35.60;34.40;;;;;;4965493;28;20027;-82
2023/08/09 09:11:26;;;;;;;0.00;0.00;;;35.60;34.40;;;;;;4959326;28;20035;-83
2023/08/09 09:13:52;;;;;;;0.00;0.00;;;35.90;35.70;;;;;;4962837;28;20098;-86
2023/08/09 09:16:19;;;;;;;0.00;0.00;;;36.80;34.70;;;;;;4967530;28;20554;-83
2023/08/09 09:18:46;;;;;;;0.25;0.25;;;36.80;34.70;;;;;;4970188;28;20031;-84
2023/08/09 09:21:14;;;;;;;0.00;0.00;;;36.30;36.40;;;;;;4968748;28;20047;-82
2023/08/09 09:23:40;;;;;;;0.00;0.00;;;36.50;33.70;;;;;;4968827;28;20684;-84
2023/08/09 09:26:14;;;;;;;0.00;0.00;;;36.70;31.40;;;;;;4968738;28;20113;-82
2023/08/09 09:28:41;;;;;;;0.00;0.00;;;36.80;34.40;;;;;;4965987;28;20033;-83
2023/08/09 09:31:08;;;;;;;0.00;0.00;;;36.60;33.60;;;;;;4967561;28;20029;-81
2023/08/09 09:33:35;;;;;;;0.30;0.20;;;37.00;33.40;;;;;;4968282;28;20023;-82
2023/08/09 09:36:02;;;;;;;0.00;0.00;;;36.00;33.50;;;;;;4965636;28;20034;-82
2023/08/09 09:38:28;;;;;;;2.13;0.52;;;35.80;34.50;;;;;;4960713;28;20023;-82
2023/08/09 09:40:56;;;;;;;4.28;0.25;;;35.70;34.20;;;;;;4967276;28;20089;-83
2023/08/09 09:43:23;;;;;;;0.05;0.05;;;37.10;33.40;;;;;;4967756;28;20039;-82
2023/08/09 09:45:54;;;;;;;0.00;0.00;;;37.20;34.80;;;;;;4967410;28;20411;-83
2023/08/09 09:48:20;;;;;;;0.00;0.00;;;36.50;33.90;;;;;;4967465;28;20542;-81
2023/08/09 09:50:48;;;;;;;0.00;0.00;;;36.70;33.10;;;;;;4967442;28;20031;-85
2023/08/09 09:53:17;;;;;;;0.00;0.00;;;37.40;32.90;;;;;;4967497;28;20038;-80
2023/08/09 09:55:43;;;;;;;0.00;0.00;;;36.40;32.00;;;;;;4966956;28;20027;-80
2023/08/09 09:58:09;;;;;;;1.15;0.60;;;36.40;31.50;;;;;;4967210;28;20037;-82
2023/08/09 10:00:36;;;;;;;0.08;0.08;;;36.50;31.00;;;;;;4966566;28;20772;-82
2023/08/09 10:03:06;;;;;;;0.00;0.00;;;37.20;31.70;;;;;;4967317;28;20029;-82
2023/08/09 10:05:40;;;;;;;0.00;0.00;;;37.40;31.10;;;;;;4966895;28;20085;-83
2023/08/09 10:08:11;;;;;;;0.00;0.00;;;38.10;30.60;;;;;;4967339;28;20031;-82
2023/08/09 10:10:38;;;;;;;0.10;0.05;;;37.10;29.80;;;;;;4962533;28;20042;-82
2023/08/09 10:13:06;;;;;;;0.00;0.00;;;37.70;29.80;;;;;;4966882;28;20394;-82
2023/08/09 10:15:38;;;;;;;0.00;0.00;;;38.60;30.80;;;;;;4966583;28;20053;-82
2023/08/09 10:18:24;;;;;;;0.00;0.00;;;38.00;30.00;;;;;;4966399;28;20521;-82
2023/08/09 10:20:52;;;;;;;0.00;0.00;;;38.30;29.90;;;;;;4969661;28;20034;-82
2023/08/09 10:23:28;;;;;;;0.00;0.00;;;38.00;29.90;;;;;;4968369;28;20082;-81
2023/08/09 10:25:55;;;;;;;0.00;0.00;;;37.80;28.20;;;;;;4966815;28;20031;-82
2023/08/09 10:28:48;;;;;;;0.10;0.10;;;38.00;28.50;;;;;;4970191;28;20050;-83
2023/08/09 10:31:14;;;;;;;0.55;0.47;;;38.50;29.50;;;;;;4964482;28;20042;-82
2023/08/09 10:34:06;;;;;;;0.00;0.00;;;36.30;28.20;;;;;;4967423;28;20015;-82
2023/08/09 10:36:33;;;;;;;0.05;0.05;;;34.00;28.40;;;;;;4949939;28;20047;-82
2023/08/09 10:39:08;;;;;;;0.00;0.00;;;33.70;31.30;;;;;;4967027;28;20030;-81
2023/08/09 10:41:34;;;;;;;0.50;0.47;;;33.10;30.60;;;;;;4960292;28;20073;-81
2023/08/09 10:44:04;;;;;;;0.00;0.00;;;32.70;31.40;;;;;;4966559;28;20034;-82
2023/08/09 10:46:33;;;;;;;0.00;0.00;;;32.00;29.40;;;;;;4966606;28;20039;-82
2023/08/09 10:49:00;;;;;;;0.00;0.00;;;31.20;31.40;;;;;;4966164;28;20730;-82
2023/08/09 10:51:27;;;;;;;0.00;0.00;;;30.80;27.30;;;;;;4959251;28;20033;-84
2023/08/09 10:53:55;;;;;;;;;;;31.00;28.50;;;;;;4966334;28;20085;-82
2023/08/09 10:56:47;;;;;;;0.00;0.00;;;30.60;30.00;;;;;;4959483;28;19941;-83
2023/08/09 10:59:23;;;;;;;0.00;0.00;;;29.70;28.40;;;;;;4963393;28;20090;-81
2023/08/09 11:01:49;;;;;;;0.00;0.00;;;29.90;30.40;;;;;;4966417;28;20022;-82
2023/08/09 11:04:18;;;;;;;0.00;0.00;;;30.20;32.30;;;;;;4965948;28;20522;-83
2023/08/09 11:06:46;;;;;;;0.32;0.32;;;29.80;32.70;;;;;;4966063;28;20550;-82
2023/08/09 11:09:13;;;;;;;0.00;0.00;;;29.30;32.40;;;;;;4965993;28;20094;-82
2023/08/09 11:11:41;;;;;;;0.13;0.13;;;29.70;33.10;;;;;;4965822;28;20053;-81
2023/08/09 11:14:08;;;;;;;0.10;0.10;;;28.80;31.40;;;;;;4966383;28;20030;-82
2023/08/09 11:16:34;;;;;;;0.10;0.10;;;29.00;34.60;;;;;;4965689;28;20030;-81
2023/08/09 11:19:07;;;;;;;0.13;0.13;;;29.10;38.10;;;;;;4967587;28;20034;-81
2023/08/09 11:21:46;;;;;;;0.20;0.20;;;29.10;36.10;;;;;;4966962;28;20743;-81
2023/08/09 11:24:13;;;;;;;0.03;0.03;;;28.60;35.30;;;;;;4965303;28;20050;-82
2023/08/09 11:26:48;;;;;;;0.25;0.25;;;28.70;36.00;;;;;;4965732;28;20553;-82
2023/08/09 11:29:16;;;;;;;0.10;0.10;;;28.80;35.10;;;;;;4969005;28;20552;-82
2023/08/09 11:31:44;;;;;;;0.32;0.32;;;28.70;35.80;;;;;;4964744;28;20121;-81
2023/08/09 11:34:14;;;;;;;0.35;0.35;;;28.30;36.40;;;;;;4966110;28;20029;-82
2023/08/09 11:36:42;;;;;;;0.22;0.22;;;28.30;40.50;;;;;;4962096;28;20042;-82
2023/08/09 11:39:09;;;;;;;0.00;0.00;;;28.10;36.40;;;;;;4963879;28;20062;-82
2023/08/09 11:41:53;;;;;;;0.00;0.00;;;27.90;39.00;;;;;;4964545;28;20578;-82
2023/08/09 11:44:31;;;;;;;0.10;0.10;;;27.60;38.80;;;;;;4965055;28;20672;-81
2023/08/09 11:47:01;;;;;;;0.00;0.00;;;27.50;39.20;;;;;;4965435;28;20042;-81
2023/08/09 11:49:33;;;;;;;0.00;0.00;;;27.60;38.70;;;;;;4965198;28;20113;-83
2023/08/09 11:52:01;;;;;;;0.70;0.35;;;27.50;41.10;;;;;;4962189;28;20030;-83
2023/08/09 11:54:27;;;;;;;0.20;0.20;;;27.80;40.30;;;;;;4965182;28;20027;-83
2023/08/09 11:56:53;;;;;;;0.00;0.00;;;27.70;40.20;;;;;;4962516;28;20121;-82
2023/08/09 11:59:22;;;;;;;0.00;0.00;;;27.40;38.70;;;;;;4964519;28;20133;-81
2023/08/09 12:01:51;;;;;;;0.00;0.00;;;27.40;40.90;;;;;;4962936;28;20134;-81
2023/08/09 12:04:21;;;;;;;0.10;0.10;;;27.50;41.60;;;;;;4964631;28;20636;-81
2023/08/09 12:06:54;;;;;;;0.00;0.00;;;27.60;41.70;;;;;;4965111;28;20030;-82
2023/08/09 12:09:31;;;;;;;0.00;0.00;;;27.40;40.20;;;;;;4964922;28;20034;-83
2023/08/09 12:12:11;;;;;;;0.03;0.03;;;27.60;41.80;;;;;;4965135;28;20050;-81
2023/08/09 12:14:41;;;;;;;0.10;0.10;;;27.50;41.70;;;;;;4964632;28;20030;-82
2023/08/09 12:17:16;;;;;;;0.32;0.28;;;27.20;38.70;;;;;;4955575;28;20027;-81
2023/08/09 12:19:42;;;;;;;0.85;0.63;;;27.20;42.10;;;;;;4969104;28;20058;-81
2023/08/09 12:22:08;;;;;;;0.00;0.00;;;27.20;41.70;;;;;;4964514;28;20130;-81
2023/08/09 12:24:33;;;;;;;0.10;0.10;;;27.10;41.00;;;;;;4964863;28;20094;-81
2023/08/09 12:26:59;;;;;;;0.20;0.20;;;27.20;43.00;;;;;;4964944;28;20138;-83
2023/08/09 12:29:25;;;;;;;0.10;0.10;;;27.10;41.40;;;;;;4967993;28;20053;-82
2023/08/09 12:31:51;;;;;;;0.00;0.00;;;27.10;41.70;;;;;;4964567;28;20045;-82
2023/08/09 12:34:18;;;;;;;0.17;0.17;;;27.00;41.90;;;;;;4965454;28;20130;-81
2023/08/09 12:36:44;;;;;;;0.00;0.00;;;26.90;41.80;;;;;;4964014;28;20037;-81
2023/08/09 12:39:14;;;;;;;0.00;0.00;;;26.90;40.60;;;;;;4964327;28;20030;-83
2023/08/09 12:41:40;;;;;;;0.08;0.08;;;26.80;40.00;;;;;;4962926;28;20039;-82
2023/08/09 12:44:10;;;;;;;0.00;0.00;;;26.90;41.90;;;;;;4964505;28;20154;-83
2023/08/09 12:46:36;;;;;;;0.17;0.17;;;26.70;40.70;;;;;;4964613;28;20042;-83
2023/08/09 12:49:02;;;;;;;0.05;0.05;;;26.80;41.80;;;;;;4965039;28;20042;-81
2023/08/09 12:51:28;;;;;;;0.00;0.00;;;26.90;42.80;;;;;;4964588;28;20106;-81